createdAt,value
2019-02-28T00:00:43.191Z,8.89
2019-02-28T00:01:46.029Z,8.95
2019-02-28T00:02:43.076Z,8.95
2019-02-28T00:03:43.032Z,8.89
2019-02-28T00:04:45.134Z,8.87
2019-02-28T00:05:43.023Z,8.79
2019-02-28T00:06:50.062Z,8.82
2019-02-28T00:07:42.988Z,8.78
2019-02-28T00:08:43.010Z,8.81
2019-02-28T00:09:42.968Z,8.66
2019-02-28T00:10:45.002Z,8.68
2019-02-28T00:11:42.946Z,8.52
2019-02-28T00:12:45.279Z,8.54
2019-02-28T00:13:42.924Z,8.50
2019-02-28T00:14:42.950Z,8.49
2019-02-28T00:15:42.915Z,8.49
2019-02-28T00:16:42.964Z,8.39
2019-02-28T00:17:43.711Z,8.32
2019-02-28T00:18:42.980Z,8.31
2019-02-28T00:19:42.856Z,8.32
2019-02-28T00:20:42.918Z,8.28
2019-02-28T00:21:42.836Z,8.26
2019-02-28T00:22:42.901Z,8.26
2019-02-28T00:23:42.813Z,8.31
2019-02-28T00:24:42.915Z,8.38
2019-02-28T00:25:42.791Z,8.39
2019-02-28T00:26:46.318Z,8.45
2019-02-28T00:27:42.770Z,8.39
2019-02-28T00:28:42.840Z,8.53
2019-02-28T00:29:42.751Z,8.42
2019-02-28T00:30:42.752Z,8.44
2019-02-28T00:31:42.741Z,8.45
2019-02-28T00:32:42.771Z,8.42
2019-02-28T00:33:42.704Z,8.39
2019-02-28T00:34:42.785Z,8.38
2019-02-28T00:35:44.695Z,8.49
2019-02-28T00:36:42.729Z,8.42
2019-02-28T00:37:42.662Z,8.34
2019-02-28T00:38:42.709Z,8.31
2019-02-28T00:39:42.639Z,8.32
2019-02-28T00:40:42.729Z,8.14
2019-02-28T00:41:44.317Z,8.20
2019-02-28T00:42:42.635Z,8.20
2019-02-28T00:43:42.596Z,8.13
2019-02-28T00:44:42.648Z,8.17
2019-02-28T00:45:42.574Z,8.05
2019-02-28T00:46:45.024Z,8.08
2019-02-28T00:47:42.552Z,7.98
2019-02-28T00:48:42.572Z,7.98
2019-02-28T00:49:42.529Z,7.96
2019-02-28T00:50:44.634Z,7.98
2019-02-28T00:51:42.522Z,7.81
2019-02-28T00:52:44.547Z,7.85
2019-02-28T00:53:42.491Z,7.87
2019-02-28T00:54:44.344Z,7.77
2019-02-28T00:55:45.873Z,7.72
2019-02-28T00:56:44.503Z,7.72
2019-02-28T00:57:42.443Z,7.64
2019-02-28T00:58:43.463Z,7.62
2019-02-28T00:59:42.421Z,7.61
2019-02-28T01:00:42.449Z,7.61
2019-02-28T01:01:43.122Z,7.48
2019-02-28T01:02:42.463Z,7.47
2019-02-28T01:03:42.376Z,7.53
2019-02-28T01:04:42.477Z,7.48
2019-02-28T01:05:42.357Z,7.48
2019-02-28T01:06:42.541Z,7.53
2019-02-28T01:07:42.333Z,7.51
2019-02-28T01:08:42.404Z,7.53
2019-02-28T01:09:42.316Z,7.56
2019-02-28T01:10:42.416Z,7.55
2019-02-28T01:11:44.780Z,7.53
2019-02-28T01:12:42.327Z,7.55
2019-02-28T01:13:42.271Z,7.41
2019-02-28T01:14:42.346Z,7.47
2019-02-28T01:15:44.906Z,7.44
2019-02-28T01:16:42.284Z,7.50
2019-02-28T01:17:42.226Z,7.48
2019-02-28T01:18:42.268Z,7.39
2019-02-28T01:19:42.366Z,7.39
2019-02-28T01:20:42.279Z,7.28
2019-02-28T01:21:42.195Z,7.40
2019-02-28T01:22:42.194Z,7.43
2019-02-28T01:23:42.163Z,7.28
2019-02-28T01:24:42.210Z,7.26
2019-02-28T01:25:42.142Z,7.21
2019-02-28T01:26:43.371Z,7.36
2019-02-28T01:27:42.120Z,7.28
2019-02-28T01:28:42.132Z,7.18
2019-02-28T01:29:42.097Z,7.29
2019-02-28T01:30:42.144Z,7.21
2019-02-28T01:31:43.265Z,7.21
2019-02-28T01:32:42.160Z,7.21
2019-02-28T01:33:42.051Z,7.21
2019-02-28T01:34:42.069Z,7.19
2019-02-28T01:35:42.032Z,7.29
2019-02-28T01:36:43.141Z,7.26
2019-02-28T01:37:42.011Z,7.10
2019-02-28T01:38:49.059Z,7.22
2019-02-28T01:39:41.988Z,7.18
2019-02-28T01:40:42.007Z,7.28
2019-02-28T01:41:42.247Z,7.29
2019-02-28T01:42:53.935Z,7.22
2019-02-28T01:43:42.947Z,7.15
2019-02-28T01:44:42.960Z,7.14
2019-02-28T01:45:44.211Z,7.10
2019-02-28T01:46:41.946Z,7.05
2019-02-28T01:47:41.915Z,7.04
2019-02-28T01:48:41.959Z,7.01
2019-02-28T01:49:41.885Z,7.08
2019-02-28T01:50:41.974Z,7.07
2019-02-28T01:51:41.863Z,7.08
2019-02-28T01:52:46.009Z,7.05
2019-02-28T01:53:41.836Z,7.01
2019-02-28T01:54:41.899Z,6.96
2019-02-28T01:55:41.818Z,7.00
2019-02-28T01:56:41.911Z,7.03
2019-02-28T01:57:44.130Z,7.00
2019-02-28T01:58:41.823Z,6.97
2019-02-28T01:59:41.775Z,7.05
2019-02-28T02:00:41.836Z,7.03
2019-02-28T02:01:41.752Z,6.93
2019-02-28T02:02:41.779Z,6.92
2019-02-28T02:03:41.824Z,6.86
2019-02-28T02:04:43.154Z,6.87
2019-02-28T02:05:41.706Z,6.78
2019-02-28T02:06:41.775Z,6.78
2019-02-28T02:07:41.699Z,6.85
2019-02-28T02:08:41.791Z,6.85
2019-02-28T02:09:42.620Z,6.87
2019-02-28T02:10:41.699Z,6.83
2019-02-28T02:11:41.642Z,6.78
2019-02-28T02:12:41.747Z,6.89
2019-02-28T02:13:42.017Z,6.86
2019-02-28T02:14:44.891Z,6.70
2019-02-28T02:15:41.598Z,6.71
2019-02-28T02:16:42.034Z,6.71
2019-02-28T02:17:41.593Z,6.71
2019-02-28T02:18:43.348Z,6.70
2019-02-28T02:19:41.556Z,6.67
2019-02-28T02:20:41.562Z,6.59
2019-02-28T02:21:41.534Z,6.67
2019-02-28T02:22:44.517Z,6.70
2019-02-28T02:23:41.512Z,6.67
2019-02-28T02:24:41.589Z,6.65
2019-02-28T02:25:41.491Z,6.62
2019-02-28T02:26:42.362Z,6.67
2019-02-28T02:27:41.497Z,6.64
2019-02-28T02:28:42.539Z,6.60
2019-02-28T02:29:41.449Z,6.64
2019-02-28T02:30:41.529Z,6.56
2019-02-28T02:31:43.526Z,6.53
2019-02-28T02:32:41.473Z,6.49
2019-02-28T02:33:41.409Z,6.59
2019-02-28T02:34:41.453Z,6.57
2019-02-28T02:35:42.612Z,6.67
2019-02-28T02:36:41.467Z,6.70
2019-02-28T02:37:41.378Z,6.70
2019-02-28T02:38:41.832Z,6.65
2019-02-28T02:39:41.343Z,6.68
2019-02-28T02:40:41.391Z,6.70
2019-02-28T02:41:41.322Z,6.78
2019-02-28T02:42:47.438Z,6.95
2019-02-28T02:43:42.300Z,7.03
2019-02-28T02:44:41.316Z,7.00
2019-02-28T02:45:43.479Z,6.95
2019-02-28T02:46:41.331Z,7.03
2019-02-28T02:47:41.286Z,6.92
2019-02-28T02:48:42.325Z,6.78
2019-02-28T02:49:41.235Z,6.77
2019-02-28T02:50:41.255Z,6.89
2019-02-28T02:51:49.154Z,6.85
2019-02-28T02:52:42.212Z,6.70
2019-02-28T02:53:42.015Z,6.72
2019-02-28T02:54:41.177Z,6.67
2019-02-28T02:55:41.188Z,6.64
2019-02-28T02:56:42.173Z,6.60
2019-02-28T02:57:41.244Z,6.74
2019-02-28T02:58:41.135Z,6.85
2019-02-28T02:59:41.218Z,6.83
2019-02-28T03:00:41.115Z,6.87
2019-02-28T03:01:41.126Z,6.93
2019-02-28T03:02:41.112Z,7.00
2019-02-28T03:03:44.251Z,7.01
2019-02-28T03:04:41.069Z,7.03
2019-02-28T03:05:41.153Z,7.04
2019-02-28T03:06:41.053Z,6.87
2019-02-28T03:07:41.097Z,7.00
2019-02-28T03:08:41.028Z,6.92
2019-02-28T03:09:43.772Z,7.00
2019-02-28T03:10:41.006Z,6.83
2019-02-28T03:11:50.001Z,6.80
2019-02-28T03:12:40.998Z,6.71
2019-02-28T03:13:43.624Z,6.70
2019-02-28T03:14:40.963Z,6.72
2019-02-28T03:15:48.513Z,6.70
2019-02-28T03:16:40.948Z,6.68
2019-02-28T03:17:46.503Z,6.47
2019-02-28T03:18:41.919Z,6.60
2019-02-28T03:19:40.946Z,6.65
2019-02-28T03:20:42.326Z,6.67
2019-02-28T03:21:40.959Z,6.67
2019-02-28T03:22:40.882Z,6.64
2019-02-28T03:23:40.931Z,6.67
2019-02-28T03:24:40.856Z,6.47
2019-02-28T03:25:40.883Z,6.57
2019-02-28T03:26:41.853Z,6.64
2019-02-28T03:27:40.899Z,6.52
2019-02-28T03:28:40.826Z,6.49
2019-02-28T03:29:43.736Z,6.44
2019-02-28T03:30:40.804Z,6.38
2019-02-28T03:31:40.821Z,6.46
2019-02-28T03:32:42.708Z,6.46
2019-02-28T03:33:40.880Z,6.46
2019-02-28T03:34:40.744Z,6.36
2019-02-28T03:35:43.738Z,6.43
2019-02-28T03:36:40.734Z,6.41
2019-02-28T03:37:40.757Z,6.36
2019-02-28T03:38:48.188Z,6.43
2019-02-28T03:39:41.691Z,6.29
2019-02-28T03:40:41.268Z,6.29
2019-02-28T03:41:40.682Z,6.17
2019-02-28T03:42:40.762Z,6.26
2019-02-28T03:43:43.822Z,6.34
2019-02-28T03:44:40.705Z,6.41
2019-02-28T03:45:40.631Z,6.25
2019-02-28T03:46:46.329Z,6.34
2019-02-28T03:47:41.603Z,6.29
2019-02-28T03:48:40.668Z,6.19
2019-02-28T03:49:48.548Z,6.17
2019-02-28T03:50:41.570Z,6.12
2019-02-28T03:51:40.671Z,6.07
2019-02-28T03:52:43.957Z,5.97
2019-02-28T03:53:40.607Z,6.09
2019-02-28T03:54:40.537Z,6.01
2019-02-28T03:55:42.625Z,6.07
2019-02-28T03:56:40.508Z,6.01
2019-02-28T03:57:41.626Z,6.01
2019-02-28T03:58:42.900Z,5.97
2019-02-28T03:59:40.501Z,5.98
2019-02-28T04:00:40.461Z,5.95
2019-02-28T04:01:57.026Z,6.02
2019-02-28T04:02:40.444Z,5.95
2019-02-28T04:03:41.499Z,5.91
2019-02-28T04:04:48.444Z,5.95
2019-02-28T04:05:41.404Z,5.97
2019-02-28T04:06:41.045Z,6.07
2019-02-28T04:07:40.395Z,5.99
2019-02-28T04:08:40.494Z,5.95
2019-02-28T04:09:44.026Z,5.97
2019-02-28T04:10:40.371Z,5.91
2019-02-28T04:11:40.340Z,5.95
2019-02-28T04:12:45.065Z,5.88
2019-02-28T04:13:41.337Z,5.87
2019-02-28T04:14:40.400Z,5.77
2019-02-28T04:15:49.796Z,5.64
2019-02-28T04:16:41.287Z,5.54
2019-02-28T04:17:40.319Z,5.51
2019-02-28T04:18:44.881Z,5.44
2019-02-28T04:19:41.361Z,5.40
2019-02-28T04:20:40.249Z,5.40
2019-02-28T04:21:46.261Z,5.33
2019-02-28T04:22:41.224Z,5.29
2019-02-28T04:23:40.295Z,5.36
2019-02-28T04:24:40.205Z,5.31
2019-02-28T04:25:40.269Z,5.31
2019-02-28T04:26:40.186Z,5.28
2019-02-28T04:27:41.807Z,5.37
2019-02-28T04:28:40.183Z,5.37
2019-02-28T04:29:40.195Z,5.31
2019-02-28T04:30:43.774Z,5.34
2019-02-28T04:31:40.211Z,5.36
2019-02-28T04:32:40.115Z,5.40
2019-02-28T04:33:40.153Z,5.31
2019-02-28T04:34:40.099Z,5.33
2019-02-28T04:35:40.133Z,5.36
2019-02-28T04:36:40.072Z,5.38
2019-02-28T04:37:44.811Z,5.38
2019-02-28T04:38:41.062Z,5.38
2019-02-28T04:39:40.060Z,5.40
2019-02-28T04:40:40.038Z,5.36
2019-02-28T04:41:41.116Z,5.46
2019-02-28T04:42:40.006Z,5.46
2019-02-28T04:43:41.616Z,5.47
2019-02-28T04:44:39.983Z,5.51
2019-02-28T04:45:39.998Z,5.51
2019-02-28T04:46:39.962Z,5.49
2019-02-28T04:47:40.528Z,5.43
2019-02-28T04:48:39.994Z,5.47
2019-02-28T04:49:41.987Z,5.46
2019-02-28T04:50:39.923Z,5.38
2019-02-28T04:51:40.944Z,5.41
2019-02-28T04:52:39.902Z,5.33
2019-02-28T04:53:39.951Z,5.40
2019-02-28T04:54:39.893Z,5.41
2019-02-28T04:55:39.966Z,5.37
2019-02-28T04:56:42.239Z,5.38
2019-02-28T04:57:40.904Z,5.33
2019-02-28T04:58:39.834Z,5.33
2019-02-28T04:59:39.922Z,5.40
2019-02-28T05:00:39.814Z,5.40
2019-02-28T05:01:39.903Z,5.46
2019-02-28T05:02:39.792Z,5.38
2019-02-28T05:03:39.815Z,5.43
2019-02-28T05:04:39.784Z,5.36
2019-02-28T05:05:39.828Z,5.29
2019-02-28T05:06:39.747Z,5.33
2019-02-28T05:07:39.845Z,5.26
2019-02-28T05:08:39.807Z,5.26
2019-02-28T05:09:39.783Z,5.28
2019-02-28T05:10:39.704Z,5.23
2019-02-28T05:11:39.770Z,5.25
2019-02-28T05:12:40.830Z,5.16
2019-02-28T05:13:41.182Z,5.20
2019-02-28T05:14:39.675Z,5.18
2019-02-28T05:15:41.088Z,5.25
2019-02-28T05:16:39.640Z,5.18
2019-02-28T05:17:39.709Z,5.20
2019-02-28T05:18:39.616Z,5.23
2019-02-28T05:19:39.647Z,5.20
2019-02-28T05:20:45.124Z,5.10
2019-02-28T05:21:40.664Z,5.08
2019-02-28T05:22:39.573Z,5.08
2019-02-28T05:23:39.642Z,5.16
2019-02-28T05:24:42.668Z,5.12
2019-02-28T05:25:39.554Z,5.05
2019-02-28T05:26:39.533Z,5.08
2019-02-28T05:27:39.569Z,4.98
2019-02-28T05:28:41.218Z,5.04
2019-02-28T05:29:44.815Z,4.97
2019-02-28T05:30:41.484Z,4.87
2019-02-28T05:31:39.495Z,4.78
2019-02-28T05:32:39.471Z,4.84
2019-02-28T05:34:00.531Z,4.67
2019-02-28T05:34:39.446Z,4.68
2019-02-28T05:35:41.469Z,4.70
2019-02-28T05:36:39.431Z,4.74
2019-02-28T05:37:39.432Z,4.64
2019-02-28T05:38:39.406Z,4.61
2019-02-28T05:39:39.477Z,4.64
2019-02-28T05:40:41.359Z,4.68
2019-02-28T05:41:39.460Z,4.68
2019-02-28T05:42:39.363Z,4.71
2019-02-28T05:43:39.370Z,4.67
2019-02-28T05:44:55.045Z,4.82
2019-02-28T05:45:39.333Z,4.79
2019-02-28T05:46:39.391Z,4.76
2019-02-28T05:47:46.167Z,4.67
2019-02-28T05:48:40.327Z,4.68
2019-02-28T05:49:40.684Z,4.56
2019-02-28T05:50:39.317Z,4.61
2019-02-28T05:51:39.265Z,4.58
2019-02-28T05:52:39.330Z,4.60
2019-02-28T05:53:41.346Z,4.60
2019-02-28T05:54:39.273Z,4.61
2019-02-28T05:55:39.221Z,4.63
2019-02-28T05:56:39.259Z,4.63
2019-02-28T05:57:42.906Z,4.66
2019-02-28T05:58:39.268Z,4.61
2019-02-28T05:59:39.192Z,4.66
2019-02-28T06:00:39.242Z,4.57
2019-02-28T06:01:39.157Z,4.64
2019-02-28T06:02:39.196Z,4.57
2019-02-28T06:03:39.137Z,4.57
2019-02-28T06:04:39.240Z,4.52
2019-02-28T06:05:39.152Z,4.52
2019-02-28T06:06:39.121Z,4.60
2019-02-28T06:07:39.092Z,4.60
2019-02-28T06:08:39.939Z,4.61
2019-02-28T06:09:39.088Z,4.66
2019-02-28T06:10:39.165Z,4.70
2019-02-28T06:11:39.052Z,4.61
2019-02-28T06:12:40.461Z,4.61
2019-02-28T06:13:39.059Z,4.60
2019-02-28T06:14:39.103Z,4.58
2019-02-28T06:15:39.011Z,4.52
2019-02-28T06:16:39.088Z,4.56
2019-02-28T06:17:38.998Z,4.56
2019-02-28T06:18:38.997Z,4.52
2019-02-28T06:19:40.177Z,4.53
2019-02-28T06:20:39.014Z,4.58
2019-02-28T06:21:38.944Z,4.48
2019-02-28T06:22:39.946Z,4.61
2019-02-28T06:23:40.808Z,4.49
2019-02-28T06:24:38.935Z,4.57
2019-02-28T06:25:38.914Z,4.75
2019-02-28T06:26:38.950Z,4.76
2019-02-28T06:27:41.794Z,4.75
2019-02-28T06:28:38.962Z,4.84
2019-02-28T06:29:38.858Z,4.82
2019-02-28T06:30:41.386Z,4.84
2019-02-28T06:31:38.836Z,4.78
2019-02-28T06:32:38.889Z,4.75
2019-02-28T06:33:38.816Z,4.71
2019-02-28T06:34:39.416Z,4.71
2019-02-28T06:35:38.806Z,4.74
2019-02-28T06:36:38.815Z,4.90
2019-02-28T06:37:39.192Z,4.98
2019-02-28T06:38:38.829Z,4.90
2019-02-28T06:39:38.766Z,4.90
2019-02-28T06:40:38.769Z,5.02
2019-02-28T06:41:39.977Z,4.97
2019-02-28T06:42:38.751Z,5.05
2019-02-28T06:43:38.707Z,5.07
2019-02-28T06:44:38.766Z,5.13
2019-02-28T06:45:38.700Z,5.25
2019-02-28T06:46:39.860Z,5.26
2019-02-28T06:47:39.087Z,5.33
2019-02-28T06:48:38.690Z,5.36
2019-02-28T06:49:41.890Z,5.46
2019-02-28T06:50:38.735Z,5.44
2019-02-28T06:51:38.623Z,5.47
2019-02-28T06:52:38.719Z,5.59
2019-02-28T06:53:38.602Z,5.64
2019-02-28T06:54:39.919Z,5.73
2019-02-28T06:55:38.597Z,5.90
2019-02-28T06:56:38.642Z,5.87
2019-02-28T06:57:38.555Z,6.06
2019-02-28T06:58:38.656Z,6.07
2019-02-28T06:59:39.046Z,6.26
2019-02-28T07:00:40.648Z,6.43
2019-02-28T07:01:38.515Z,6.49
2019-02-28T07:02:39.605Z,6.49
2019-02-28T07:03:38.907Z,6.53
2019-02-28T07:04:38.493Z,6.60
2019-02-28T07:05:38.483Z,6.64
2019-02-28T07:06:45.983Z,6.64
2019-02-28T07:07:38.450Z,6.62
2019-02-28T07:08:40.466Z,6.74
2019-02-28T07:09:38.425Z,6.78
2019-02-28T07:10:38.463Z,6.93
2019-02-28T07:11:38.405Z,7.03
2019-02-28T07:12:38.445Z,7.22
2019-02-28T07:13:39.823Z,7.19
2019-02-28T07:14:38.459Z,7.19
2019-02-28T07:15:38.380Z,7.15
2019-02-28T07:16:38.370Z,7.21
2019-02-28T07:17:38.339Z,7.23
2019-02-28T07:18:38.385Z,7.21
2019-02-28T07:19:38.317Z,7.21
2019-02-28T07:20:38.428Z,7.31
2019-02-28T07:21:42.829Z,7.48
2019-02-28T07:22:40.157Z,7.62
2019-02-28T07:23:38.292Z,7.83
2019-02-28T07:24:38.328Z,7.96
2019-02-28T07:25:38.265Z,7.98
2019-02-28T07:26:38.337Z,8.09
2019-02-28T07:27:38.229Z,8.21
2019-02-28T07:28:38.270Z,8.38
2019-02-28T07:29:38.214Z,8.42
2019-02-28T07:30:38.293Z,8.11
2019-02-28T07:31:38.192Z,8.11
2019-02-28T07:32:38.276Z,8.09
2019-02-28T07:33:38.164Z,7.99
2019-02-28T07:34:38.187Z,7.87
2019-02-28T07:35:38.158Z,7.75
2019-02-28T07:36:38.201Z,7.75
2019-02-28T07:37:38.120Z,7.88
2019-02-28T07:38:38.214Z,7.87
2019-02-28T07:39:40.433Z,7.99
2019-02-28T07:40:38.262Z,8.11
2019-02-28T07:41:38.077Z,8.09
2019-02-28T07:42:38.630Z,8.18
2019-02-28T07:43:38.057Z,8.18
2019-02-28T07:44:38.153Z,8.17
2019-02-28T07:45:38.038Z,8.16
2019-02-28T07:46:42.274Z,8.09
2019-02-28T07:47:38.014Z,8.28
2019-02-28T07:48:39.102Z,8.31
2019-02-28T07:49:37.990Z,8.74
2019-02-28T07:50:54.988Z,8.99
2019-02-28T07:51:37.984Z,9.08
2019-02-28T07:52:53.587Z,9.45
2019-02-28T07:53:40.962Z,9.62
2019-02-28T07:54:39.974Z,9.99
2019-02-28T07:55:37.923Z,9.63
2019-02-28T07:56:42.709Z,9.30
2019-02-28T07:57:38.899Z,9.09
2019-02-28T07:58:37.952Z,9.47
2019-02-28T07:59:42.238Z,9.80
2019-02-28T08:00:37.958Z,10.07
2019-02-28T08:01:37.876Z,10.36
2019-02-28T08:02:39.212Z,10.48
2019-02-28T08:03:37.849Z,10.79
2019-02-28T08:04:37.908Z,11.00
2019-02-28T08:05:37.818Z,10.82
2019-02-28T08:06:39.338Z,10.80
2019-02-28T08:07:37.799Z,10.82
2019-02-28T08:08:37.812Z,11.00
2019-02-28T08:09:40.661Z,11.35
2019-02-28T08:10:37.819Z,11.45
2019-02-28T08:11:37.767Z,11.38
2019-02-28T08:12:37.834Z,11.55
2019-02-28T08:13:38.625Z,11.53
2019-02-28T08:14:37.745Z,11.88
2019-02-28T08:15:37.720Z,11.93
2019-02-28T08:16:37.796Z,11.95
2019-02-28T08:17:40.609Z,12.02
2019-02-28T08:18:38.695Z,12.05
2019-02-28T08:19:37.664Z,11.99
2019-02-28T08:20:37.686Z,12.15
2019-02-28T08:21:43.955Z,12.26
2019-02-28T08:22:38.630Z,12.17
2019-02-28T08:23:37.745Z,12.30
2019-02-28T08:24:37.610Z,12.39
2019-02-28T08:25:39.718Z,12.45
2019-02-28T08:26:38.618Z,12.50
2019-02-28T08:27:37.629Z,12.55
2019-02-28T08:28:37.569Z,12.37
2019-02-28T08:29:37.643Z,12.35
2019-02-28T08:30:37.540Z,12.21
2019-02-28T08:31:37.555Z,12.21
2019-02-28T08:32:42.733Z,12.20
2019-02-28T08:33:38.597Z,12.21
2019-02-28T08:34:37.509Z,12.17
2019-02-28T08:35:38.502Z,12.25
2019-02-28T08:36:37.475Z,12.18
2019-02-28T08:37:37.577Z,11.65
2019-02-28T08:38:37.455Z,11.86
2019-02-28T08:39:41.195Z,11.78
2019-02-28T08:40:37.431Z,11.68
2019-02-28T08:41:38.442Z,11.93
2019-02-28T08:42:39.691Z,12.23
2019-02-28T08:43:37.432Z,12.36
2019-02-28T08:44:37.385Z,12.48
2019-02-28T08:45:37.445Z,12.45
2019-02-28T08:46:37.362Z,12.51
2019-02-28T08:47:37.389Z,12.35
2019-02-28T08:48:37.342Z,12.43
2019-02-28T08:49:42.285Z,12.51
2019-02-28T08:50:38.326Z,13.01
2019-02-28T08:51:37.384Z,13.37
2019-02-28T08:52:37.601Z,13.39
2019-02-28T08:53:37.400Z,13.52
2019-02-28T08:54:37.272Z,13.55
2019-02-28T08:55:38.298Z,13.62
2019-02-28T08:56:37.256Z,13.37
2019-02-28T08:57:37.354Z,13.11
2019-02-28T08:58:38.378Z,12.81
2019-02-28T08:59:37.337Z,12.70
2019-02-28T09:00:37.816Z,12.69
2019-02-28T09:01:40.013Z,12.76
2019-02-28T09:02:37.502Z,13.01
2019-02-28T09:03:37.267Z,13.23
2019-02-28T09:04:41.272Z,13.55
2019-02-28T09:05:37.292Z,13.68
2019-02-28T09:06:37.918Z,13.82
2019-02-28T09:07:37.249Z,13.93
2019-02-28T09:08:37.191Z,13.95
2019-02-28T09:09:37.218Z,13.76
2019-02-28T09:10:37.555Z,14.12
2019-02-28T09:11:37.123Z,14.12
2019-02-28T09:12:37.092Z,14.20
2019-02-28T09:13:39.943Z,14.38
2019-02-28T09:14:38.052Z,14.25
2019-02-28T09:15:37.180Z,14.44
2019-02-28T09:16:39.721Z,14.85
2019-02-28T09:17:39.141Z,14.97
2019-02-28T09:18:37.014Z,15.23
2019-02-28T09:19:38.117Z,15.37
2019-02-28T09:20:36.986Z,15.84
2019-02-28T09:21:37.999Z,16.08
2019-02-28T09:22:37.002Z,16.13
2019-02-28T09:23:37.718Z,16.25
2019-02-28T09:24:36.948Z,16.18
2019-02-28T09:25:37.002Z,16.05
2019-02-28T09:26:36.921Z,15.55
2019-02-28T09:27:39.028Z,15.44
2019-02-28T09:28:36.919Z,15.54
2019-02-28T09:29:36.927Z,15.66
2019-02-28T09:30:36.877Z,15.85
2019-02-28T09:31:39.078Z,16.09
2019-02-28T09:32:36.871Z,15.73
2019-02-28T09:33:36.885Z,15.39
2019-02-28T09:34:36.836Z,15.36
2019-02-28T09:35:36.868Z,15.75
2019-02-28T09:36:36.812Z,16.62
2019-02-28T09:37:37.879Z,16.91
2019-02-28T09:38:36.807Z,17.38
2019-02-28T09:39:36.896Z,17.27
2019-02-28T09:40:36.775Z,17.07
2019-02-28T09:41:40.152Z,17.12
2019-02-28T09:42:36.747Z,17.59
2019-02-28T09:43:36.852Z,17.72
2019-02-28T09:44:36.722Z,17.90
2019-02-28T09:45:39.885Z,17.68
2019-02-28T09:46:36.708Z,17.04
2019-02-28T09:47:36.746Z,16.58
2019-02-28T09:48:37.095Z,16.47
2019-02-28T09:49:36.758Z,17.04
2019-02-28T09:50:36.658Z,17.59
2019-02-28T09:51:36.774Z,17.10
2019-02-28T09:52:41.234Z,16.76
2019-02-28T09:53:36.713Z,16.62
2019-02-28T09:54:36.614Z,16.61
2019-02-28T09:55:36.702Z,16.61
2019-02-28T09:56:36.592Z,16.32
2019-02-28T09:57:36.607Z,16.18
2019-02-28T09:58:36.591Z,16.36
2019-02-28T09:59:37.811Z,16.22
2019-02-28T10:00:36.550Z,16.72
2019-02-28T10:01:36.634Z,17.07
2019-02-28T10:02:36.527Z,17.16
2019-02-28T10:03:46.511Z,17.07
2019-02-28T10:04:36.510Z,17.35
2019-02-28T10:05:42.190Z,17.50
2019-02-28T10:06:36.482Z,18.05
2019-02-28T10:07:37.497Z,18.64
2019-02-28T10:08:37.898Z,18.45
2019-02-28T10:09:36.484Z,18.26
2019-02-28T10:10:36.444Z,17.86
2019-02-28T10:11:36.498Z,17.90
2019-02-28T10:12:39.431Z,17.90
2019-02-28T10:13:37.466Z,18.16
2019-02-28T10:14:36.405Z,18.03
2019-02-28T10:15:38.735Z,17.76
2019-02-28T10:16:37.378Z,17.95
2019-02-28T10:17:36.438Z,18.06
2019-02-28T10:18:38.921Z,17.68
2019-02-28T10:19:43.882Z,17.27
2019-02-28T10:20:37.336Z,17.37
2019-02-28T10:21:39.457Z,16.98
2019-02-28T10:22:36.319Z,16.49
2019-02-28T10:23:36.411Z,16.57
2019-02-28T10:24:36.293Z,16.59
2019-02-28T10:25:40.408Z,16.46
2019-02-28T10:26:37.269Z,16.22
2019-02-28T10:27:36.300Z,16.21
2019-02-28T10:28:36.262Z,16.16
2019-02-28T10:29:38.447Z,16.54
2019-02-28T10:30:37.233Z,16.49
2019-02-28T10:31:38.467Z,16.16
2019-02-28T10:32:36.205Z,16.39
2019-02-28T10:33:36.275Z,16.89
2019-02-28T10:34:36.183Z,17.53
2019-02-28T10:35:36.779Z,18.02
2019-02-28T10:36:36.161Z,17.93
2019-02-28T10:37:36.165Z,16.80
2019-02-28T10:38:36.156Z,16.08
2019-02-28T10:39:36.178Z,15.72
2019-02-28T10:40:36.116Z,15.57
2019-02-28T10:41:36.195Z,15.45
2019-02-28T10:42:37.085Z,15.25
2019-02-28T10:43:36.135Z,15.12
2019-02-28T10:44:36.075Z,15.08
2019-02-28T10:45:40.901Z,15.45
2019-02-28T10:46:37.049Z,15.39
2019-02-28T10:47:36.131Z,15.65
2019-02-28T10:48:41.855Z,15.72
2019-02-28T10:49:37.017Z,16.22
2019-02-28T10:50:43.011Z,16.50
2019-02-28T10:51:35.996Z,16.65
2019-02-28T10:52:38.010Z,17.16
2019-02-28T10:53:36.281Z,17.16
2019-02-28T10:54:36.005Z,17.19
2019-02-28T10:55:35.959Z,17.57
2019-02-28T10:56:35.989Z,18.28
2019-02-28T10:57:37.225Z,18.27
2019-02-28T10:58:36.006Z,18.26
2019-02-28T10:59:35.921Z,17.76
2019-02-28T11:00:35.917Z,17.16
2019-02-28T11:01:35.885Z,16.65
2019-02-28T11:02:35.926Z,16.40
2019-02-28T11:03:35.864Z,16.05
2019-02-28T11:04:35.972Z,16.03
2019-02-28T11:05:35.842Z,16.00
2019-02-28T11:06:35.851Z,16.03
2019-02-28T11:07:37.893Z,15.69
2019-02-28T11:08:35.865Z,15.47
2019-02-28T11:09:35.814Z,15.33
2019-02-28T11:10:36.350Z,15.25
2019-02-28T11:11:35.780Z,15.26
2019-02-28T11:12:35.792Z,15.00
2019-02-28T11:13:35.755Z,14.92
2019-02-28T11:14:38.786Z,14.87
2019-02-28T11:15:35.733Z,14.67
2019-02-28T11:16:36.152Z,14.71
2019-02-28T11:17:35.711Z,14.90
2019-02-28T11:18:36.515Z,14.92
2019-02-28T11:19:35.701Z,14.90
2019-02-28T11:20:35.745Z,14.81
2019-02-28T11:21:35.665Z,14.70
2019-02-28T11:22:36.501Z,14.82
2019-02-28T11:23:35.649Z,15.14
2019-02-28T11:24:35.698Z,15.25
2019-02-28T11:25:35.710Z,15.26
2019-02-28T11:26:35.682Z,15.02
2019-02-28T11:27:35.601Z,14.66
2019-02-28T11:28:35.695Z,14.37
2019-02-28T11:29:36.390Z,14.05
2019-02-28T11:30:36.184Z,14.26
2019-02-28T11:31:35.561Z,14.44
2019-02-28T11:32:35.621Z,14.62
2019-02-28T11:33:36.431Z,14.82
2019-02-28T11:34:35.562Z,14.81
2019-02-28T11:35:35.516Z,15.04
2019-02-28T11:36:37.595Z,15.32
2019-02-28T11:37:35.486Z,15.57
2019-02-28T11:38:37.505Z,15.63
2019-02-28T11:39:35.485Z,15.84
2019-02-28T11:40:35.470Z,15.72
2019-02-28T11:41:35.443Z,15.41
2019-02-28T11:42:35.484Z,15.54
2019-02-28T11:43:38.458Z,15.32
2019-02-28T11:44:35.537Z,15.12
2019-02-28T11:45:35.397Z,15.00
2019-02-28T11:46:36.626Z,15.11
2019-02-28T11:47:35.377Z,15.23
2019-02-28T11:48:35.422Z,15.10
2019-02-28T11:49:35.368Z,14.78
2019-02-28T11:50:41.177Z,14.56
2019-02-28T11:51:36.327Z,14.31
2019-02-28T11:52:35.349Z,14.30
2019-02-28T11:53:38.991Z,14.34
2019-02-28T11:54:35.395Z,14.45
2019-02-28T11:55:35.289Z,14.34
2019-02-28T11:56:35.378Z,14.58
2019-02-28T11:57:37.676Z,14.55
2019-02-28T11:58:36.311Z,14.52
2019-02-28T11:59:35.256Z,14.43
2019-02-28T12:00:36.529Z,14.41
2019-02-28T12:01:35.227Z,14.41
2019-02-28T12:02:35.315Z,14.53
2019-02-28T12:03:35.659Z,14.52
2019-02-28T12:04:37.502Z,14.53
2019-02-28T12:05:36.176Z,14.26
2019-02-28T12:06:35.240Z,14.26
2019-02-28T12:07:35.676Z,14.25
2019-02-28T12:08:35.254Z,14.33
2019-02-28T12:09:35.149Z,14.25
2019-02-28T12:10:35.165Z,14.20
2019-02-28T12:11:36.505Z,13.98
2019-02-28T12:12:35.177Z,13.82
2019-02-28T12:13:35.092Z,13.75
2019-02-28T12:14:35.121Z,13.70
2019-02-28T12:15:38.111Z,13.89
2019-02-28T12:16:35.314Z,13.75
2019-02-28T12:17:35.052Z,13.79
2019-02-28T12:18:39.469Z,13.82
2019-02-28T12:19:35.041Z,13.85
2019-02-28T12:20:35.035Z,13.79
2019-02-28T12:21:37.603Z,13.76
2019-02-28T12:22:50.623Z,13.83
2019-02-28T12:23:34.981Z,13.87
2019-02-28T12:24:35.087Z,13.93
2019-02-28T12:25:34.959Z,14.01
2019-02-28T12:26:34.967Z,13.95
2019-02-28T12:27:34.936Z,13.94
2019-02-28T12:28:35.261Z,13.78
2019-02-28T12:29:34.936Z,13.94
2019-02-28T12:30:35.017Z,13.89
2019-02-28T12:31:35.638Z,13.97
2019-02-28T12:32:34.914Z,14.00
2019-02-28T12:33:34.871Z,13.94
2019-02-28T12:34:34.955Z,13.75
2019-02-28T12:35:39.944Z,13.82
2019-02-28T12:36:35.858Z,13.79
2019-02-28T12:37:34.826Z,13.85
2019-02-28T12:38:34.848Z,13.89
2019-02-28T12:39:36.353Z,14.03
2019-02-28T12:40:34.862Z,14.15
2019-02-28T12:41:34.788Z,14.25
2019-02-28T12:42:35.369Z,14.25
2019-02-28T12:43:34.762Z,14.30
2019-02-28T12:44:34.815Z,14.48
2019-02-28T12:45:34.743Z,14.49
2019-02-28T12:46:34.796Z,14.55
2019-02-28T12:47:34.715Z,14.58
2019-02-28T12:48:34.816Z,14.66
2019-02-28T12:49:34.711Z,14.63
2019-02-28T12:50:34.723Z,14.90
2019-02-28T12:51:36.550Z,15.08
2019-02-28T12:52:34.735Z,15.32
2019-02-28T12:53:34.652Z,15.39
2019-02-28T12:54:34.682Z,15.75
2019-02-28T12:55:35.419Z,15.51
2019-02-28T12:56:34.662Z,15.11
2019-02-28T12:57:34.609Z,15.05
2019-02-28T12:58:38.658Z,14.86
2019-02-28T12:59:34.865Z,14.86
2019-02-28T13:00:34.588Z,14.73
2019-02-28T13:01:34.561Z,14.56
2019-02-28T13:02:34.601Z,14.71
2019-02-28T13:03:34.539Z,14.48
2019-02-28T13:04:35.854Z,14.49
2019-02-28T13:05:34.539Z,14.74
2019-02-28T13:06:34.524Z,14.82
2019-02-28T13:07:34.663Z,15.11
2019-02-28T13:08:34.538Z,15.23